Houwa Maru — JL6394 — position and weather

sailwx.info

Track history (hours):
 
Tides and Currents Weather Stations Pressure Air Temp Water Temp Dewpoint Dewpoint Depression Visibility Wind Speed Wind Dir Waves Ship Positions

Houwa Maru

Last reported at 2015-Jan-27 10:10 UTC. Time now 2015-Jan-29 12:26 UTC.
Position N 34°36' E 135°04'.

Length 76 m.

Type: Ship. MMSI: 431500378.

Date/timePositionNaut miles runAvg speedWind from/ knotsBaromVisibWave heightAir tempDewpointWater temp
2015-Jan-27 10:10N 34°36' E 135°04'710.4
2015-Jan-27 09:32N 34°36' E 135°12'12 9.1
2015-Jan-27 08:14N 34°35' E 135°27'1 0.0
2015-Jan-26 02:30N 34°35' E 135°26'9 9.1
2015-Jan-26 01:33N 34°36' E 135°16'12 9.8
2015-Jan-26 00:21N 34°37' E 135°02'243 9.7
2015-Jan-24 23:26N 33°45' E 130°15'10 9.8
2015-Jan-24 22:28N 33°38' E 130°07'  
2015-Jan-21 09:06N 33°40' E 130°09'611.0
2015-Jan-21 08:32N 33°44' E 130°15'  
2015-Jan-19 03:31N 34°36' E 135°06'1210.4
2015-Jan-19 02:23N 34°36' E 135°21'4 5.0
2015-Jan-19 01:33N 34°35' E 135°26'0 0.0
2015-Jan-18 23:15N 34°35' E 135°26'2 3.3
2015-Jan-18 22:32N 34°36' E 135°23'  
Track history (hours):
 
Tides and Currents Weather Stations Pressure Air Temp Water Temp Dewpoint Dewpoint Depression Visibility Wind Speed Wind Dir Waves Ship Positions

Houwa Maru

Last reported at 2015-Jan-27 10:10 UTC. Time now 2015-Jan-29 12:26 UTC.
Position N 34°36' E 135°04'.

Length 76 m.

Type: Ship. MMSI: 431500378.

Date/timePositionNaut miles runAvg speedWind from/ knotsBaromVisibWave heightAir tempDewpointWater temp
2015-Jan-27 10:10N 34°36' E 135°04'710.4
2015-Jan-27 09:32N 34°36' E 135°12'12 9.1
2015-Jan-27 08:14N 34°35' E 135°27'1 0.0
2015-Jan-26 02:30N 34°35' E 135°26'9 9.1
2015-Jan-26 01:33N 34°36' E 135°16'12 9.8
2015-Jan-26 00:21N 34°37' E 135°02'243 9.7
2015-Jan-24 23:26N 33°45' E 130°15'10 9.8
2015-Jan-24 22:28N 33°38' E 130°07'  
2015-Jan-21 09:06N 33°40' E 130°09'611.0
2015-Jan-21 08:32N 33°44' E 130°15'  
2015-Jan-19 03:31N 34°36' E 135°06'1210.4
2015-Jan-19 02:23N 34°36' E 135°21'4 5.0
2015-Jan-19 01:33N 34°35' E 135°26'0 0.0
2015-Jan-18 23:15N 34°35' E 135°26'2 3.3
2015-Jan-18 22:32N 34°36' E 135°23'  

Dump ship's entire track history